createdAt,value
2023-05-05T00:02:21.648Z,12.42
2023-05-05T00:04:48.568Z,12.32
2023-05-05T00:07:15.639Z,12.38
2023-05-05T00:09:43.610Z,12.33
2023-05-05T00:12:10.721Z,12.38
2023-05-05T00:14:37.822Z,12.38
2023-05-05T00:17:05.785Z,12.28
2023-05-05T00:19:36.311Z,12.46
2023-05-05T00:22:11.504Z,12.45
2023-05-05T00:24:45.147Z,12.56
2023-05-05T00:27:14.902Z,12.65
2023-05-05T00:29:45.051Z,12.71
2023-05-05T00:32:14.321Z,12.74
2023-05-05T00:34:41.138Z,12.70
2023-05-05T00:37:07.949Z,12.70
2023-05-05T00:39:34.796Z,12.79
2023-05-05T00:42:01.670Z,12.81
2023-05-05T00:44:38.277Z,12.80
2023-05-05T00:47:06.002Z,12.61
2023-05-05T00:49:33.719Z,12.20
2023-05-05T00:52:00.792Z,12.03
2023-05-05T00:54:28.186Z,11.72
2023-05-05T00:56:55.356Z,11.51
2023-05-05T00:59:22.392Z,11.56
2023-05-05T01:01:49.599Z,11.72
2023-05-05T01:04:16.462Z,11.77
2023-05-05T01:07:03.864Z,11.74
2023-05-05T01:10:18.033Z,11.90
2023-05-05T01:13:14.746Z,11.66
2023-05-05T01:15:50.655Z,11.29
2023-05-05T01:18:37.745Z,11.47
2023-05-05T01:21:42.797Z,11.55
2023-05-05T01:24:42.137Z,11.57
2023-05-05T01:27:30.792Z,11.63
2023-05-05T01:30:03.229Z,11.71
2023-05-05T01:32:34.097Z,11.86
2023-05-05T01:35:09.732Z,11.93
2023-05-05T01:38:17.352Z,11.89
2023-05-05T01:40:49.284Z,11.92
2023-05-05T01:43:20.359Z,11.84
2023-05-05T01:45:49.086Z,11.87
2023-05-05T01:48:19.733Z,11.51
2023-05-05T01:50:48.514Z,11.22
2023-05-05T01:53:18.268Z,11.05
2023-05-05T01:55:47.585Z,11.16
2023-05-05T01:58:16.352Z,11.20
2023-05-05T02:00:44.495Z,11.07
2023-05-05T02:03:13.936Z,11.14
2023-05-05T02:05:44.112Z,11.12
2023-05-05T02:08:12.556Z,11.19
2023-05-05T02:10:40.304Z,11.22
2023-05-05T02:13:08.200Z,11.30
2023-05-05T02:15:37.767Z,11.22
2023-05-05T02:18:06.944Z,11.01
2023-05-05T02:20:36.279Z,10.81
2023-05-05T02:23:03.326Z,10.91
2023-05-05T02:25:46.159Z,11.15
2023-05-05T02:28:21.545Z,11.19
2023-05-05T02:30:59.652Z,11.29
2023-05-05T02:33:29.593Z,11.34
2023-05-05T02:35:57.668Z,11.21
2023-05-05T02:38:30.848Z,11.12
2023-05-05T02:40:59.427Z,11.14
2023-05-05T02:43:30.055Z,11.19
2023-05-05T02:45:57.268Z,11.20
2023-05-05T02:48:24.158Z,11.18
2023-05-05T02:50:51.101Z,11.23
2023-05-05T02:53:23.808Z,11.14
2023-05-05T02:55:57.415Z,11.15
2023-05-05T02:58:57.209Z,11.18
2023-05-05T03:02:02.799Z,11.14
2023-05-05T03:04:38.610Z,10.73
2023-05-05T03:07:26.279Z,10.44
2023-05-05T03:10:05.527Z,10.78
2023-05-05T03:12:40.059Z,11.05
2023-05-05T03:15:10.634Z,11.26
2023-05-05T03:17:39.738Z,11.37
2023-05-05T03:20:08.200Z,11.41
2023-05-05T03:22:41.303Z,11.47
2023-05-05T03:25:08.635Z,11.49
2023-05-05T03:27:36.230Z,11.17
2023-05-05T03:30:03.356Z,11.42
2023-05-05T03:32:30.441Z,11.74
2023-05-05T03:34:57.686Z,11.79
2023-05-05T03:37:24.702Z,11.66
2023-05-05T03:39:51.567Z,11.54
2023-05-05T03:42:18.606Z,11.36
2023-05-05T03:44:45.689Z,11.23
2023-05-05T03:47:13.207Z,10.98
2023-05-05T03:49:40.132Z,11.13
2023-05-05T03:52:07.187Z,11.17
2023-05-05T03:54:34.364Z,11.29
2023-05-05T03:57:01.514Z,11.46
2023-05-05T03:59:28.523Z,11.78
2023-05-05T04:01:55.588Z,11.83
2023-05-05T04:04:22.484Z,12.03
2023-05-05T04:06:49.696Z,12.27
2023-05-05T04:09:16.541Z,12.59
2023-05-05T04:11:43.430Z,12.87
2023-05-05T04:14:10.508Z,12.95
2023-05-05T04:16:37.838Z,13.06
2023-05-05T04:19:04.738Z,13.37
2023-05-05T04:21:31.786Z,13.58
2023-05-05T04:23:58.758Z,13.62
2023-05-05T04:26:25.880Z,13.72
2023-05-05T04:28:53.022Z,13.75
2023-05-05T04:31:20.210Z,13.81
2023-05-05T04:33:47.340Z,13.72
2023-05-05T04:36:14.500Z,13.62
2023-05-05T04:38:41.550Z,13.93
2023-05-05T04:41:08.541Z,13.92
2023-05-05T04:43:35.595Z,13.94
2023-05-05T04:46:02.474Z,14.07
2023-05-05T04:48:29.350Z,14.10
2023-05-05T04:50:56.683Z,14.26
2023-05-05T04:53:24.821Z,14.39
2023-05-05T04:55:52.115Z,14.38
2023-05-05T04:58:19.832Z,14.55
2023-05-05T05:00:47.644Z,14.76
2023-05-05T05:03:14.758Z,14.71
2023-05-05T05:05:41.873Z,14.77
2023-05-05T05:08:08.929Z,14.88
2023-05-05T05:10:36.396Z,15.13
2023-05-05T05:13:12.902Z,15.15
2023-05-05T05:15:40.068Z,15.17
2023-05-05T05:18:14.340Z,15.57
2023-05-05T05:20:41.168Z,15.68
2023-05-05T05:23:07.945Z,15.56
2023-05-05T05:25:34.773Z,15.64
2023-05-05T05:28:10.346Z,15.47
2023-05-05T05:30:37.905Z,15.19
2023-05-05T05:33:15.909Z,15.26
2023-05-05T05:35:43.260Z,15.20
2023-05-05T05:38:10.143Z,15.21
2023-05-05T05:40:37.034Z,15.32
2023-05-05T05:43:17.352Z,15.42
2023-05-05T05:45:44.856Z,15.71
2023-05-05T05:48:11.773Z,16.03
2023-05-05T05:50:49.780Z,16.30
2023-05-05T05:53:16.664Z,16.27
2023-05-05T05:55:46.441Z,16.23
2023-05-05T05:58:13.287Z,16.50
2023-05-05T06:00:40.195Z,16.73
2023-05-05T06:03:07.152Z,16.94
2023-05-05T06:05:33.986Z,16.99
2023-05-05T06:08:01.288Z,17.14
2023-05-05T06:10:28.627Z,17.20
2023-05-05T06:12:55.580Z,17.31
2023-05-05T06:15:22.705Z,17.23
2023-05-05T06:17:49.514Z,17.33
2023-05-05T06:20:16.463Z,17.19
2023-05-05T06:22:44.602Z,17.23
2023-05-05T06:25:11.587Z,17.42
2023-05-05T06:27:38.609Z,17.92
2023-05-05T06:30:07.198Z,17.88
2023-05-05T06:32:34.280Z,17.99
2023-05-05T06:35:01.319Z,18.21
2023-05-05T06:37:39.101Z,18.50
2023-05-05T06:40:06.976Z,18.58
2023-05-05T06:42:34.032Z,18.59
2023-05-05T06:45:00.924Z,18.85
2023-05-05T06:47:27.766Z,18.73
2023-05-05T06:49:54.746Z,18.59
2023-05-05T06:52:23.197Z,18.48
2023-05-05T06:54:50.807Z,18.30
2023-05-05T06:57:17.706Z,18.31
2023-05-05T06:59:44.821Z,18.32
2023-05-05T07:02:11.684Z,18.57
2023-05-05T07:04:38.705Z,18.82
2023-05-05T07:07:05.591Z,19.07
2023-05-05T07:09:32.577Z,19.18
2023-05-05T07:11:59.459Z,19.00
2023-05-05T07:14:26.898Z,19.00
2023-05-05T07:16:54.009Z,19.19
2023-05-05T07:19:20.854Z,19.17
2023-05-05T07:21:55.216Z,19.05
2023-05-05T07:24:24.337Z,18.94
2023-05-05T07:26:51.349Z,18.89
2023-05-05T07:29:18.312Z,18.99
2023-05-05T07:31:45.587Z,19.30
2023-05-05T07:34:12.545Z,19.48
2023-05-05T07:36:39.504Z,19.66
2023-05-05T07:39:06.343Z,19.65
2023-05-05T07:41:34.282Z,19.54
2023-05-05T07:44:01.308Z,19.39
2023-05-05T07:46:28.286Z,19.54
2023-05-05T07:48:55.252Z,19.72
2023-05-05T07:51:22.127Z,19.85
2023-05-05T07:53:49.015Z,19.94
2023-05-05T07:56:16.168Z,19.84
2023-05-05T07:58:43.305Z,20.10
2023-05-05T08:01:10.237Z,20.28
2023-05-05T08:03:37.721Z,20.09
2023-05-05T08:06:09.499Z,19.98
2023-05-05T08:08:37.044Z,20.07
2023-05-05T08:11:03.985Z,20.16
2023-05-05T08:13:31.068Z,19.90
2023-05-05T08:15:58.379Z,19.99
2023-05-05T08:18:25.425Z,20.09
2023-05-05T08:20:52.674Z,20.28
2023-05-05T08:23:19.959Z,20.56
2023-05-05T08:25:46.887Z,20.69
2023-05-05T08:28:13.833Z,20.55
2023-05-05T08:30:40.772Z,20.69
2023-05-05T08:33:07.672Z,20.80
2023-05-05T08:35:34.985Z,20.74
2023-05-05T08:38:01.914Z,20.75
2023-05-05T08:40:37.275Z,20.98
2023-05-05T08:43:05.221Z,21.26
2023-05-05T08:45:33.329Z,21.49
2023-05-05T08:48:05.526Z,21.68
2023-05-05T08:53:57.511Z,21.75
2023-05-05T08:56:27.348Z,21.92
2023-05-05T08:58:55.091Z,21.79
2023-05-05T09:01:23.173Z,21.95
2023-05-05T09:03:52.568Z,21.89
2023-05-05T09:06:23.952Z,21.75
2023-05-05T09:08:59.655Z,21.92
2023-05-05T09:11:26.814Z,22.06
2023-05-05T09:13:54.875Z,22.34
2023-05-05T09:16:21.942Z,22.16
2023-05-05T09:18:50.003Z,21.72
2023-05-05T09:21:26.667Z,21.73
2023-05-05T09:24:11.510Z,21.60
2023-05-05T09:26:44.781Z,21.22
2023-05-05T09:29:21.470Z,21.32
2023-05-05T09:32:06.729Z,21.62
2023-05-05T09:34:35.057Z,21.30
2023-05-05T09:37:20.054Z,21.04
2023-05-05T09:39:54.471Z,20.97
2023-05-05T09:42:21.431Z,21.05
2023-05-05T09:44:48.274Z,21.11
2023-05-05T09:47:26.356Z,21.19
2023-05-05T09:49:59.594Z,21.17
2023-05-05T09:52:26.643Z,21.07
2023-05-05T09:54:57.342Z,21.20
2023-05-05T09:57:33.089Z,21.57
2023-05-05T10:00:01.804Z,21.99
2023-05-05T10:02:33.483Z,22.15
2023-05-05T10:05:09.318Z,21.86
2023-05-05T10:07:37.516Z,21.34
2023-05-05T10:10:06.141Z,21.41
2023-05-05T10:12:50.149Z,21.73
2023-05-05T10:15:17.363Z,21.59
2023-05-05T10:18:05.367Z,21.44
2023-05-05T10:20:33.656Z,21.25
2023-05-05T10:23:07.381Z,21.25
2023-05-05T10:25:51.421Z,21.79
2023-05-05T10:28:29.026Z,22.33
2023-05-05T10:30:58.635Z,22.60
2023-05-05T10:33:43.283Z,22.57
2023-05-05T10:36:10.554Z,22.51
2023-05-05T10:38:38.437Z,22.64
2023-05-05T10:41:06.038Z,22.26
2023-05-05T10:43:35.994Z,22.10
2023-05-05T10:46:04.418Z,21.86
2023-05-05T10:48:40.065Z,21.97
2023-05-05T10:51:27.413Z,21.41
2023-05-05T10:54:10.737Z,21.24
2023-05-05T10:56:41.231Z,21.17
2023-05-05T10:59:37.243Z,21.51
2023-05-05T11:02:31.038Z,21.57
2023-05-05T11:05:12.051Z,21.81
2023-05-05T11:07:40.364Z,21.80
2023-05-05T11:10:10.186Z,21.80
2023-05-05T11:12:55.384Z,21.61
2023-05-05T11:15:29.376Z,21.73
2023-05-05T11:18:02.643Z,22.22
2023-05-05T11:20:37.852Z,22.50
2023-05-05T11:23:05.333Z,22.18
2023-05-05T11:25:35.324Z,21.96
2023-05-05T11:28:16.475Z,21.93
2023-05-05T11:30:58.555Z,21.99
2023-05-05T11:33:33.883Z,22.23
2023-05-05T11:36:06.841Z,21.74
2023-05-05T11:38:56.182Z,21.34
2023-05-05T11:41:31.670Z,21.47
2023-05-05T11:44:18.261Z,21.83
2023-05-05T11:46:50.856Z,22.13
2023-05-05T11:49:36.764Z,21.86
2023-05-05T11:52:07.632Z,21.91
2023-05-05T11:54:48.164Z,21.70
2023-05-05T11:57:19.825Z,21.68
2023-05-05T11:59:54.927Z,21.45
2023-05-05T12:02:23.418Z,21.47
2023-05-05T12:04:50.967Z,21.44
2023-05-05T12:07:20.051Z,21.51
2023-05-05T12:09:48.319Z,21.43
2023-05-05T12:12:16.189Z,21.28
2023-05-05T12:14:51.276Z,21.12
2023-05-05T12:17:22.770Z,21.14
2023-05-05T12:19:51.876Z,21.07
2023-05-05T12:22:21.987Z,21.16
2023-05-05T12:25:00.339Z,21.09
2023-05-05T12:27:28.404Z,21.18
2023-05-05T12:29:57.540Z,21.27
2023-05-05T12:32:26.497Z,21.48
2023-05-05T12:34:55.142Z,21.67
2023-05-05T12:37:23.164Z,21.58
2023-05-05T12:39:57.790Z,21.50
2023-05-05T12:42:24.821Z,21.82
2023-05-05T12:44:51.699Z,22.17
2023-05-05T12:47:32.824Z,22.37
2023-05-05T12:50:00.393Z,22.42
2023-05-05T12:52:44.758Z,22.34
2023-05-05T12:55:13.562Z,22.37
2023-05-05T12:57:59.407Z,22.04
2023-05-05T13:00:26.930Z,22.10
2023-05-05T13:02:54.006Z,21.86
2023-05-05T13:05:34.947Z,21.71
2023-05-05T13:08:01.942Z,21.53
2023-05-05T13:10:28.976Z,21.65
2023-05-05T13:12:56.494Z,21.50
2023-05-05T13:15:24.939Z,21.23
2023-05-05T13:17:59.067Z,21.22
2023-05-05T13:20:26.208Z,21.17
2023-05-05T13:22:53.032Z,21.24
2023-05-05T13:25:19.965Z,21.40
2023-05-05T13:27:46.848Z,21.51
2023-05-05T13:30:14.272Z,21.52
2023-05-05T13:32:42.482Z,21.47
2023-05-05T13:35:09.639Z,21.55
2023-05-05T13:37:36.783Z,21.82
2023-05-05T13:40:04.007Z,22.07
2023-05-05T13:42:30.802Z,21.98
2023-05-05T13:44:57.640Z,22.15
2023-05-05T13:47:24.684Z,22.46
2023-05-05T13:49:51.686Z,22.64
2023-05-05T13:52:18.625Z,22.27
2023-05-05T13:54:45.672Z,21.72
2023-05-05T13:57:12.694Z,21.59
2023-05-05T13:59:39.536Z,21.38
2023-05-05T14:02:07.193Z,21.36
2023-05-05T14:04:34.284Z,21.36
2023-05-05T14:07:01.400Z,21.30
2023-05-05T14:09:32.513Z,21.36
2023-05-05T14:11:59.372Z,21.24
2023-05-05T14:14:26.398Z,21.28
2023-05-05T14:16:53.430Z,21.28
2023-05-05T14:19:20.691Z,21.30
2023-05-05T14:21:47.473Z,21.25
2023-05-05T14:24:15.165Z,21.30
2023-05-05T14:26:41.998Z,21.35
2023-05-05T14:29:09.083Z,21.27
2023-05-05T14:31:36.457Z,21.18
2023-05-05T14:34:03.432Z,21.21
2023-05-05T14:36:30.474Z,21.31
2023-05-05T14:38:57.498Z,21.32
2023-05-05T14:41:24.443Z,21.33
2023-05-05T14:43:51.430Z,21.17
2023-05-05T14:46:18.588Z,21.04
2023-05-05T14:48:45.832Z,21.00
2023-05-05T14:51:14.775Z,20.98
2023-05-05T14:53:41.994Z,20.98
2023-05-05T14:56:09.066Z,20.93
2023-05-05T14:58:36.121Z,20.86
2023-05-05T15:01:03.083Z,20.85
2023-05-05T15:03:30.022Z,20.81
2023-05-05T15:05:57.074Z,20.75
2023-05-05T15:08:24.127Z,20.65
2023-05-05T15:10:51.069Z,20.57
2023-05-05T15:13:18.022Z,20.52
2023-05-05T15:15:44.990Z,20.45
2023-05-05T15:18:12.153Z,20.38
2023-05-05T15:20:39.069Z,20.35
2023-05-05T15:23:06.164Z,20.30
2023-05-05T15:25:33.164Z,20.23
2023-05-05T15:28:00.239Z,20.21
2023-05-05T15:30:28.004Z,20.20
2023-05-05T15:32:55.110Z,20.18
2023-05-05T15:35:22.213Z,20.05
2023-05-05T15:37:55.100Z,20.02
2023-05-05T15:40:22.324Z,20.02
2023-05-05T15:42:49.360Z,20.00
2023-05-05T15:45:16.985Z,19.98
2023-05-05T15:47:44.050Z,19.96
2023-05-05T15:50:11.452Z,19.93
2023-05-05T15:52:38.561Z,19.94
2023-05-05T15:55:06.282Z,19.93
2023-05-05T15:57:34.568Z,19.83
2023-05-05T16:00:01.738Z,19.80
2023-05-05T16:02:28.959Z,19.91
2023-05-05T16:04:56.080Z,20.04
2023-05-05T16:07:23.138Z,19.95
2023-05-05T16:09:50.200Z,20.01
2023-05-05T16:12:20.628Z,19.67
2023-05-05T16:14:47.852Z,19.44
2023-05-05T16:17:14.910Z,19.22
2023-05-05T16:19:41.961Z,19.26
2023-05-05T16:22:09.433Z,19.29
2023-05-05T16:24:36.607Z,19.52
2023-05-05T16:27:04.184Z,19.84
2023-05-05T16:29:31.179Z,19.83
2023-05-05T16:31:58.335Z,19.92
2023-05-05T16:34:25.874Z,19.86
2023-05-05T16:36:55.928Z,19.99
2023-05-05T16:39:29.900Z,19.97
2023-05-05T16:41:57.345Z,19.98
2023-05-05T16:44:34.653Z,19.80
2023-05-05T16:47:05.448Z,19.76
2023-05-05T16:49:32.832Z,19.97
2023-05-05T16:51:59.970Z,19.96
2023-05-05T16:54:27.369Z,19.88
2023-05-05T16:56:54.440Z,19.80
2023-05-05T16:59:21.362Z,19.71
2023-05-05T17:01:48.514Z,19.71
2023-05-05T17:04:15.653Z,19.70
2023-05-05T17:06:42.726Z,19.69
2023-05-05T17:09:09.856Z,19.87
2023-05-05T17:11:36.906Z,19.80
2023-05-05T17:14:03.969Z,19.79
2023-05-05T17:16:32.098Z,19.63
2023-05-05T17:18:59.168Z,19.48
2023-05-05T17:21:26.054Z,19.26
2023-05-05T17:23:54.720Z,18.96
2023-05-05T17:26:22.881Z,18.62
2023-05-05T17:28:50.041Z,18.67
2023-05-05T17:31:17.131Z,18.84
2023-05-05T17:33:44.127Z,18.90
2023-05-05T17:36:11.264Z,18.98
2023-05-05T17:38:38.506Z,18.82
2023-05-05T17:41:08.552Z,18.89
2023-05-05T17:43:37.040Z,19.02
2023-05-05T17:46:06.644Z,18.94
2023-05-05T17:48:33.935Z,18.83
2023-05-05T17:51:01.800Z,18.96
2023-05-05T17:53:31.574Z,18.95
2023-05-05T17:56:02.827Z,18.86
2023-05-05T17:58:29.808Z,18.80
2023-05-05T18:00:57.050Z,18.90
2023-05-05T18:03:29.434Z,18.91
2023-05-05T18:06:02.475Z,18.95
2023-05-05T18:08:29.938Z,18.89
2023-05-05T18:10:56.992Z,18.87
2023-05-05T18:13:24.128Z,18.78
2023-05-05T18:15:54.515Z,18.60
2023-05-05T18:18:22.053Z,18.49
2023-05-05T18:20:49.723Z,18.22
2023-05-05T18:23:16.855Z,18.10
2023-05-05T18:25:46.975Z,18.01
2023-05-05T18:28:14.061Z,17.96
2023-05-05T18:30:43.915Z,18.23
2023-05-05T18:33:13.399Z,18.13
2023-05-05T18:35:40.585Z,18.14
2023-05-05T18:38:07.590Z,17.86
2023-05-05T18:40:34.572Z,17.95
2023-05-05T18:43:01.645Z,17.81
2023-05-05T18:45:31.448Z,17.89
2023-05-05T18:47:58.641Z,17.98
2023-05-05T18:50:25.726Z,17.99
2023-05-05T18:52:52.905Z,17.93
2023-05-05T18:55:20.065Z,17.70
2023-05-05T18:57:47.132Z,17.66
2023-05-05T19:00:14.442Z,17.70
2023-05-05T19:02:41.572Z,17.69
2023-05-05T19:05:09.556Z,17.80
2023-05-05T19:07:36.906Z,17.83
2023-05-05T19:10:05.242Z,17.90
2023-05-05T19:12:32.266Z,17.95
2023-05-05T19:15:02.271Z,17.90
2023-05-05T19:17:29.378Z,17.92
2023-05-05T19:19:56.727Z,17.83
2023-05-05T19:22:24.860Z,17.80
2023-05-05T19:24:51.769Z,17.84
2023-05-05T19:27:18.855Z,17.85
2023-05-05T19:29:48.320Z,17.76
2023-05-05T19:32:18.460Z,17.77
2023-05-05T19:34:50.924Z,17.74
2023-05-05T19:37:18.031Z,17.75
2023-05-05T19:39:46.462Z,17.72
2023-05-05T19:42:17.687Z,17.66
2023-05-05T19:44:45.146Z,17.54
2023-05-05T19:47:13.707Z,17.48
2023-05-05T19:49:52.131Z,17.53
2023-05-05T19:52:19.203Z,17.49
2023-05-05T19:54:49.936Z,17.41
2023-05-05T19:57:22.323Z,17.26
2023-05-05T19:59:49.357Z,17.34
2023-05-05T20:02:16.844Z,17.28
2023-05-05T20:04:44.284Z,17.17
2023-05-05T20:07:12.718Z,17.18
2023-05-05T20:09:40.084Z,17.08
2023-05-05T20:12:10.458Z,17.03
2023-05-05T20:14:39.612Z,16.86
2023-05-05T20:17:06.642Z,16.79
2023-05-05T20:19:36.631Z,16.78
2023-05-05T20:22:03.653Z,16.73
2023-05-05T20:24:30.976Z,16.68
2023-05-05T20:26:58.012Z,16.64
2023-05-05T20:29:25.063Z,16.66
2023-05-05T20:31:52.009Z,16.65
2023-05-05T20:34:19.187Z,16.65
2023-05-05T20:36:46.108Z,16.61
2023-05-05T20:39:16.270Z,16.66
2023-05-05T20:41:43.342Z,16.62
2023-05-05T20:44:10.320Z,16.55
2023-05-05T20:46:37.367Z,16.53
2023-05-05T20:49:04.542Z,16.55
2023-05-05T20:51:32.883Z,16.64
2023-05-05T20:54:00.411Z,16.64
2023-05-05T20:56:30.440Z,16.63
2023-05-05T20:58:57.473Z,16.57
2023-05-05T21:01:27.513Z,16.44
2023-05-05T21:03:59.632Z,16.45
2023-05-05T21:06:26.827Z,16.38
2023-05-05T21:08:53.908Z,16.33
2023-05-05T21:11:21.079Z,16.35
2023-05-05T21:13:48.058Z,16.27
2023-05-05T21:16:16.874Z,16.28
2023-05-05T21:18:44.168Z,16.19
2023-05-05T21:21:11.265Z,16.17
2023-05-05T21:23:38.332Z,16.18
2023-05-05T21:26:05.522Z,16.26
2023-05-05T21:28:32.510Z,16.28
2023-05-05T21:31:19.870Z,16.34
2023-05-05T21:33:46.537Z,16.37
2023-05-05T21:36:13.801Z,16.33
2023-05-05T21:38:41.097Z,16.23
2023-05-05T21:41:08.076Z,16.27
2023-05-05T21:43:34.990Z,16.31
2023-05-05T21:46:04.739Z,16.36
2023-05-05T21:48:31.865Z,16.34
2023-05-05T21:50:58.908Z,16.32
2023-05-05T21:53:25.873Z,16.27
2023-05-05T21:55:52.967Z,16.19
2023-05-05T21:58:19.872Z,16.20
2023-05-05T22:00:49.610Z,16.28
2023-05-05T22:03:17.045Z,16.27
2023-05-05T22:05:44.079Z,16.29
2023-05-05T22:08:10.947Z,16.29
2023-05-05T22:10:40.511Z,16.24
2023-05-05T22:13:07.590Z,16.28
2023-05-05T22:15:45.388Z,16.17
2023-05-05T22:18:14.165Z,16.24
2023-05-05T22:20:41.289Z,16.25
2023-05-05T22:23:08.199Z,16.23
2023-05-05T22:25:35.820Z,16.23
2023-05-05T22:28:02.902Z,16.21
2023-05-05T22:30:29.864Z,16.16
2023-05-05T22:33:00.219Z,16.20
2023-05-05T22:35:27.407Z,16.30
2023-05-05T22:37:54.565Z,16.17
2023-05-05T22:40:21.710Z,16.12
2023-05-05T22:42:49.237Z,16.02
2023-05-05T22:45:16.448Z,15.89
2023-05-05T22:47:43.560Z,15.92
2023-05-05T22:50:10.960Z,16.01
2023-05-05T22:52:37.881Z,16.02
2023-05-05T22:55:05.236Z,16.05
2023-05-05T22:57:34.496Z,16.05
2023-05-05T23:00:02.966Z,16.05
2023-05-05T23:02:30.051Z,16.12
2023-05-05T23:04:57.061Z,16.14
2023-05-05T23:07:24.095Z,15.97
2023-05-05T23:09:51.060Z,15.80
2023-05-05T23:12:18.128Z,15.75
2023-05-05T23:14:45.064Z,15.77
2023-05-05T23:17:12.141Z,15.63
2023-05-05T23:19:39.216Z,15.58
2023-05-05T23:22:06.140Z,15.55
2023-05-05T23:24:33.324Z,15.45
2023-05-05T23:27:01.204Z,15.32
2023-05-05T23:29:28.387Z,15.34
2023-05-05T23:31:55.592Z,15.39
2023-05-05T23:34:22.607Z,15.39
2023-05-05T23:36:49.831Z,15.44
2023-05-05T23:39:16.987Z,15.49
2023-05-05T23:41:44.111Z,15.52
2023-05-05T23:44:11.105Z,15.49
2023-05-05T23:46:38.335Z,15.45
2023-05-05T23:49:05.402Z,15.48
2023-05-05T23:51:34.511Z,15.48
2023-05-05T23:54:01.608Z,15.55
2023-05-05T23:56:28.599Z,15.63
2023-05-05T23:58:55.543Z,15.61
